Time;durP1;ratioP1;P1;durP2;ratioP2;P2;SDS_P1;SDS_P2;PMS_P1;PMS_P2;Temp;Humidity;BMP_temperature;BMP_pressure;BME280_temperature;BME280_humidity;BME280_pressure;Samples;Min_cycle;Max_cycle;Signal;HPM_P1;HPM_P2
2022/06/06 00:00:05;;;;;;;8.32;4.28;;;24.20;99.90;;;;;;5028841;28;20056;-57
2022/06/06 00:02:31;;;;;;;6.00;3.88;;;24.20;99.90;;;;;;5008006;28;20576;-54
2022/06/06 00:04:57;;;;;;;5.85;4.30;;;24.20;99.90;;;;;;5029084;28;20168;-55
2022/06/06 00:07:24;;;;;;;4.72;4.18;;;24.20;99.90;;;;;;5010279;28;20126;-52
2022/06/06 00:09:50;;;;;;;4.68;4.28;;;24.30;99.90;;;;;;4995867;28;20198;-55
2022/06/06 00:12:16;;;;;;;5.63;4.05;;;24.40;99.90;;;;;;4978850;28;20571;-55
2022/06/06 00:14:43;;;;;;;4.93;4.30;;;24.40;99.90;;;;;;5069604;28;20036;-54
2022/06/06 00:17:09;;;;;;;5.88;4.07;;;24.50;99.90;;;;;;5017190;28;20040;-54
2022/06/06 00:19:35;;;;;;;6.70;4.65;;;24.60;99.90;;;;;;5071368;28;20033;-55
2022/06/06 00:22:01;;;;;;;5.93;4.53;;;24.60;99.90;;;;;;5032286;28;20033;-57
2022/06/06 00:24:27;;;;;;;6.03;4.55;;;24.70;99.90;;;;;;5071087;28;20036;-55
2022/06/06 00:26:53;;;;;;;5.20;4.45;;;24.70;99.90;;;;;;5015130;28;20081;-58
2022/06/06 00:29:21;;;;;;;5.95;5.00;;;24.70;99.90;;;;;;5069786;28;20028;-57
2022/06/06 00:34:49;;;;;;;5.68;4.78;;;24.80;99.90;;;;;;5070306;28;20541;-57
2022/06/06 00:37:36;;;;;;;4.90;4.38;;;24.80;99.90;;;;;;5030405;28;20083;-56
2022/06/06 00:40:04;;;;;;;5.10;4.43;;;24.80;99.90;;;;;;4997705;28;20040;-55
2022/06/06 00:42:38;;;;;;;6.65;4.65;;;24.90;99.90;;;;;;5029844;28;20128;-56
2022/06/06 00:45:28;;;;;;;7.00;4.80;;;24.80;99.90;;;;;;5030119;28;20397;-54
2022/06/06 00:47:57;;;;;;;6.80;4.95;;;24.80;99.90;;;;;;5044810;28;20032;-56
2022/06/06 00:50:30;;;;;;;5.70;4.15;;;24.80;99.90;;;;;;5036363;28;20132;-54
2022/06/06 00:52:57;;;;;;;6.40;4.68;;;24.80;99.90;;;;;;5046833;28;20191;-53
2022/06/06 00:55:27;;;;;;;5.55;4.38;;;24.80;99.90;;;;;;5047902;28;20033;-56
2022/06/06 00:57:57;;;;;;;6.47;4.80;;;24.80;99.90;;;;;;5046805;28;20119;-57
2022/06/06 01:00:24;;;;;;;5.38;4.80;;;24.80;99.90;;;;;;5046937;28;20079;-55
2022/06/06 01:02:54;;;;;;;5.63;5.10;;;24.60;99.90;;;;;;5048323;28;20033;-57
2022/06/06 01:05:22;;;;;;;6.28;5.28;;;24.60;99.90;;;;;;5015273;28;20095;-54
2022/06/06 01:07:48;;;;;;;10.23;5.05;;;24.60;99.90;;;;;;5045943;28;20441;-56
2022/06/06 01:10:15;;;;;;;5.38;4.88;;;24.40;99.90;;;;;;5047693;28;20077;-58
2022/06/06 01:12:44;;;;;;;6.25;5.00;;;24.40;99.90;;;;;;5067919;28;20491;-58
2022/06/06 01:15:12;;;;;;;7.13;5.28;;;24.50;99.90;;;;;;5067872;28;20099;-56
2022/06/06 01:17:38;;;;;;;7.15;5.63;;;24.50;99.90;;;;;;5020033;28;20033;-57
2022/06/06 01:20:16;;;;;;;5.80;4.97;;;24.50;99.90;;;;;;5069917;28;20036;-55
2022/06/06 01:23:08;;;;;;;5.28;4.78;;;24.60;99.90;;;;;;5055101;28;20037;-58
2022/06/06 01:25:46;;;;;;;6.75;5.50;;;24.50;99.90;;;;;;5066310;28;20039;-54
2022/06/06 01:28:46;;;;;;;5.53;4.93;;;24.50;99.90;;;;;;5072842;28;20190;-56
2022/06/06 01:31:41;;;;;;;6.70;5.40;;;24.50;99.90;;;;;;5072672;28;20507;-53
2022/06/06 01:34:10;;;;;;;5.45;4.95;;;24.30;99.90;;;;;;5071283;28;20039;-55
2022/06/06 01:36:39;;;;;;;6.18;5.22;;;24.20;99.90;;;;;;5070692;28;20101;-53
2022/06/06 01:39:09;;;;;;;6.05;5.30;;;24.00;99.90;;;;;;5072397;28;20036;-56
2022/06/06 01:42:09;;;;;;;5.85;5.25;;;24.00;99.90;;;;;;5069619;28;20024;-56
2022/06/06 01:44:46;;;;;;;7.45;5.53;;;24.00;99.90;;;;;;5073037;28;20024;-58
2022/06/06 01:47:20;;;;;;;7.70;5.53;;;24.00;99.90;;;;;;5072300;28;20106;-56
2022/06/06 01:49:47;;;;;;;6.35;5.60;;;24.00;99.90;;;;;;5074098;28;20024;-56
2022/06/06 01:52:15;;;;;;;8.32;5.72;;;24.00;99.90;;;;;;5069318;28;20032;-53
2022/06/06 01:54:42;;;;;;;6.82;5.38;;;24.10;99.90;;;;;;5071997;28;20047;-56
2022/06/06 01:57:11;;;;;;;7.07;5.45;;;24.10;99.90;;;;;;5072861;28;20536;-56
2022/06/06 01:59:37;;;;;;;10.73;5.72;;;24.20;99.90;;;;;;5072788;28;20165;-58
2022/06/06 02:02:04;;;;;;;7.53;5.60;;;24.20;99.90;;;;;;5033380;28;20527;-54
2022/06/06 02:04:30;;;;;;;6.30;5.10;;;24.20;99.90;;;;;;5069669;28;20029;-53
2022/06/06 02:06:56;;;;;;;7.72;4.95;;;24.00;99.90;;;;;;5071609;28;20093;-56
2022/06/06 02:09:22;;;;;;;8.65;5.18;;;23.90;99.90;;;;;;5072002;28;20521;-55
2022/06/06 02:11:48;;;;;;;8.55;5.35;;;23.70;99.90;;;;;;5070467;28;20032;-56
2022/06/06 02:14:14;;;;;;;8.98;5.70;;;23.80;99.90;;;;;;5071754;28;20028;-56
2022/06/06 02:16:40;;;;;;;6.25;5.10;;;23.80;99.90;;;;;;5016404;28;20036;-55
2022/06/06 02:19:07;;;;;;;8.40;5.72;;;23.70;99.90;;;;;;5071689;28;20475;-57
2022/06/06 02:21:33;;;;;;;6.18;5.57;;;23.60;99.90;;;;;;5037386;28;20044;-55
2022/06/06 02:24:00;;;;;;;8.20;5.43;;;23.60;99.90;;;;;;5072342;28;20159;-57
2022/06/06 02:26:26;;;;;;;9.20;5.57;;;23.60;99.90;;;;;;5071694;28;20042;-56
2022/06/06 02:28:52;;;;;;;6.32;5.60;;;23.60;99.90;;;;;;5070128;28;20276;-55
2022/06/06 02:31:17;;;;;;;8.07;5.70;;;23.70;99.90;;;;;;5072150;28;20024;-56
2022/06/06 02:33:44;;;;;;;9.40;5.57;;;23.70;99.90;;;;;;5033378;28;20033;-56
2022/06/06 02:36:11;;;;;;;7.75;6.15;;;23.70;99.90;;;;;;5070999;28;20056;-55
2022/06/06 02:38:37;;;;;;;8.40;6.10;;;23.60;99.90;;;;;;5067699;28;20380;-54
2022/06/06 02:41:09;;;;;;;10.00;5.72;;;23.50;99.90;;;;;;5035595;28;20047;-57
2022/06/06 02:43:39;;;;;;;;;;;23.60;99.90;;;;;;5071308;28;20032;-54
2022/06/06 02:46:10;;;;;;;8.95;6.15;;;23.50;99.90;;;;;;5069740;28;19955;-54
2022/06/06 02:48:36;;;;;;;12.25;6.45;;;23.60;99.90;;;;;;5057653;28;20105;-57
2022/06/06 02:51:03;;;;;;;9.63;5.80;;;23.60;99.90;;;;;;5065604;28;20044;-55
2022/06/06 02:53:30;;;;;;;7.65;5.97;;;23.60;99.90;;;;;;5069629;28;20071;-57
2022/06/06 02:55:58;;;;;;;7.68;6.15;;;23.50;99.90;;;;;;5070539;28;20035;-53
2022/06/06 02:58:25;;;;;;;7.30;5.60;;;23.40;99.90;;;;;;5070960;28;20028;-57
2022/06/06 03:01:01;;;;;;;8.85;6.30;;;23.50;99.90;;;;;;5014262;28;20444;-54
2022/06/06 03:03:28;;;;;;;6.72;5.57;;;23.50;99.90;;;;;;5030222;28;20037;-53
2022/06/06 03:06:05;;;;;;;7.60;5.43;;;23.60;99.90;;;;;;5029484;28;20053;-53
2022/06/06 03:09:01;;;;;;;7.50;5.85;;;23.60;99.90;;;;;;5030053;28;20025;-54
2022/06/06 03:11:49;;;;;;;9.68;5.72;;;23.60;99.90;;;;;;4981942;28;20516;-58
2022/06/06 03:14:36;;;;;;;8.25;5.53;;;23.60;99.90;;;;;;4990478;28;20066;-58
2022/06/06 03:23:28;;;;;;;12.80;6.28;;;23.50;99.90;;;;;;4989472;28;20045;-54
2022/06/06 03:26:00;;;;;;;10.13;6.45;;;23.60;99.90;;;;;;4986266;28;20050;-57
2022/06/06 03:28:37;;;;;;;10.70;6.78;;;23.60;99.90;;;;;;4985737;28;20030;-57
2022/06/06 03:31:08;;;;;;;10.40;6.78;;;23.60;99.90;;;;;;4993940;28;20038;-54
2022/06/06 03:33:51;;;;;;;9.00;6.40;;;23.60;99.90;;;;;;5028583;28;20056;-55
2022/06/06 03:36:40;;;;;;;10.35;6.95;;;23.40;99.90;;;;;;5028610;28;20053;-54
2022/06/06 03:40:04;;;;;;;9.45;5.80;;;23.70;99.90;;;;;;5023721;28;20026;-54
2022/06/06 03:42:53;;;;;;;7.15;6.07;;;23.70;99.90;;;;;;4972396;28;20038;-57
2022/06/06 03:45:28;;;;;;;7.70;5.95;;;23.50;99.90;;;;;;4991595;28;20026;-54
2022/06/06 03:47:54;;;;;;;6.50;5.90;;;23.40;99.90;;;;;;4992515;28;20489;-56
2022/06/06 03:50:42;;;;;;;8.07;6.50;;;23.20;99.90;;;;;;4996762;28;20046;-55
2022/06/06 03:53:37;;;;;;;9.10;6.10;;;23.30;99.90;;;;;;4988893;28;20042;-56
2022/06/06 03:56:11;;;;;;;8.25;6.35;;;23.30;99.90;;;;;;4993848;28;20069;-57
2022/06/06 03:58:38;;;;;;;7.60;6.28;;;;;;;;;;4989135;28;20029;-54
2022/06/06 04:01:07;;;;;;;7.65;6.88;;;23.10;99.90;;;;;;4992442;28;20487;-55
2022/06/06 04:03:35;;;;;;;11.70;7.32;;;23.10;99.90;;;;;;4988611;28;20387;-54
2022/06/06 04:06:02;;;;;;;9.85;7.18;;;22.90;99.90;;;;;;4990363;28;20101;-53
2022/06/06 04:08:28;;;;;;;8.85;7.55;;;22.80;99.90;;;;;;4990495;28;20026;-52
2022/06/06 04:11:31;;;;;;;7.85;7.05;;;22.80;99.90;;;;;;4994478;28;20136;-56
2022/06/06 04:14:27;;;;;;;10.07;6.28;;;22.90;99.90;;;;;;5062390;28;20036;-54
2022/06/06 04:17:12;;;;;;;10.88;7.13;;;23.20;99.90;;;;;;5018959;28;20104;-53
2022/06/06 04:20:09;;;;;;;19.95;7.65;;;23.40;99.90;;;;;;5035583;28;20033;-55
2022/06/06 04:23:17;;;;;;;8.27;6.78;;;23.50;99.90;;;;;;5045051;28;20435;-54
2022/06/06 04:26:20;;;;;;;7.80;6.53;;;23.20;99.90;;;;;;5068667;28;20591;-55
2022/06/06 04:28:55;;;;;;;7.20;6.38;;;23.20;99.90;;;;;;5033490;28;20040;-53
2022/06/06 04:31:56;;;;;;;7.47;6.68;;;23.40;99.90;;;;;;5062210;28;20495;-58
2022/06/06 04:34:41;;;;;;;6.72;6.03;;;23.20;99.90;;;;;;5062285;28;20029;-56
2022/06/06 04:37:19;;;;;;;6.25;5.65;;;23.30;99.90;;;;;;5072046;28;20510;-55
2022/06/06 04:40:10;;;;;;;7.07;6.00;;;23.40;99.90;;;;;;5048051;28;20132;-58
2022/06/06 04:42:59;;;;;;;6.25;5.65;;;23.60;99.90;;;;;;5029532;28;20052;-58
2022/06/06 04:46:00;;;;;;;8.32;5.70;;;23.70;99.90;;;;;;5071907;28;20151;-58
2022/06/06 04:48:27;;;;;;;11.07;5.60;;;23.80;99.90;;;;;;4963514;28;20143;-60
2022/06/06 04:50:55;;;;;;;6.68;5.95;;;24.00;99.90;;;;;;4987480;28;20081;-53
2022/06/06 04:53:23;;;;;;;7.35;5.72;;;24.10;99.90;;;;;;4991466;28;20474;-55
2022/06/06 04:55:50;;;;;;;7.50;6.00;;;24.20;99.90;;;;;;4990537;28;20555;-55
2022/06/06 04:58:18;;;;;;;7.00;5.55;;;24.30;99.90;;;;;;4987936;28;20042;-53
2022/06/06 05:00:45;;;;;;;5.65;5.15;;;24.20;99.90;;;;;;4985324;28;20464;-57
2022/06/06 05:03:13;;;;;;;6.18;5.57;;;24.30;99.90;;;;;;4970991;28;20485;-57
2022/06/06 05:06:06;;;;;;;7.70;4.82;;;24.50;99.90;;;;;;4939364;28;20070;-56
2022/06/06 05:08:50;;;;;;;6.60;5.40;;;24.70;99.90;;;;;;4966084;28;20078;-56
2022/06/06 05:11:24;;;;;;;6.97;5.60;;;25.00;99.90;;;;;;4971117;28;20114;-56
2022/06/06 05:14:05;;;;;;;6.63;5.82;;;25.20;99.90;;;;;;4970923;28;20039;-52
2022/06/06 05:17:03;;;;;;;5.38;4.88;;;;;;;;;;4970813;28;20030;-55
2022/06/06 05:19:37;;;;;;;6.05;4.57;;;25.40;99.90;;;;;;4913988;29;20052;-54
2022/06/06 05:22:34;;;;;;;6.50;4.90;;;25.40;99.90;;;;;;4913701;29;20122;-56
2022/06/06 05:25:22;;;;;;;7.75;4.78;;;25.40;99.90;;;;;;4933504;29;20031;-56
2022/06/06 05:27:58;;;;;;;9.35;5.18;;;25.40;99.90;;;;;;4951729;28;20035;-56
2022/06/06 05:30:39;;;;;;;8.38;5.43;;;25.70;99.90;;;;;;4950320;28;20050;-55
2022/06/06 05:33:05;;;;;;;9.77;5.43;;;;;;;;;;4913344;28;20542;-54
2022/06/06 05:35:34;;;;;;;7.57;5.07;;;;;;;;;;4973928;28;20038;-56
2022/06/06 05:38:18;;;;;;;5.88;5.22;;;;;;;;;;4975020;28;20073;-56
2022/06/06 05:40:55;;;;;;;7.35;5.65;;;;;;;;;;4974330;28;20093;-57
2022/06/06 05:43:47;;;;;;;8.13;5.60;;;;;;;;;;4964722;28;20039;-55
2022/06/06 05:46:29;;;;;;;6.35;5.25;;;26.50;99.90;;;;;;4950793;28;20090;-56
2022/06/06 05:49:11;;;;;;;6.05;5.43;;;26.60;99.90;;;;;;4971231;28;20046;-57
2022/06/06 05:51:43;;;;;;;9.90;5.50;;;26.30;99.90;;;;;;4964109;28;20081;-57
2022/06/06 05:54:40;;;;;;;8.77;5.30;;;26.40;99.90;;;;;;4966132;28;20042;-52
2022/06/06 05:57:29;;;;;;;10.52;5.55;;;26.50;99.90;;;;;;5026499;28;20049;-58
2022/06/06 06:00:16;;;;;;;10.95;5.65;;;26.30;99.90;;;;;;4987962;28;20046;-53
2022/06/06 06:03:15;;;;;;;7.13;4.95;;;26.30;99.90;;;;;;5017019;28;20052;-54
2022/06/06 06:06:14;;;;;;;5.95;5.10;;;26.40;99.90;;;;;;5021285;28;20501;-56
2022/06/06 06:08:41;;;;;;;8.73;4.82;;;;;;;;;;5021782;28;20051;-55
2022/06/06 06:11:10;;;;;;;8.88;4.88;;;;;;;;;;5027137;28;20029;-57
2022/06/06 06:13:42;;;;;;;8.70;5.07;;;;;;;;;;5020371;28;20041;-55
2022/06/06 06:16:11;;;;;;;6.72;4.57;;;27.10;99.90;;;;;;5019441;28;20050;-52
2022/06/06 06:18:41;;;;;;;7.10;4.72;;;27.10;99.90;;;;;;5021507;28;20056;-55
2022/06/06 06:21:17;;;;;;;6.18;5.28;;;26.90;99.90;;;;;;5028673;28;20388;-53
2022/06/06 06:23:54;;;;;;;12.52;5.72;;;26.80;99.90;;;;;;5021956;28;20108;-56
2022/06/06 06:26:20;;;;;;;9.25;5.25;;;26.70;99.90;;;;;;5020435;28;20041;-55
2022/06/06 06:28:49;;;;;;;7.13;4.80;;;26.60;99.90;;;;;;5017112;28;20128;-54
2022/06/06 06:31:37;;;;;;;6.15;4.30;;;26.60;99.90;;;;;;5074316;28;20040;-55
2022/06/06 06:34:24;;;;;;;6.00;4.30;;;26.60;99.90;;;;;;5074083;28;20051;-56
2022/06/06 06:37:02;;;;;;;8.88;5.43;;;26.80;99.90;;;;;;5070080;28;20075;-57
2022/06/06 06:39:52;;;;;;;6.22;4.60;;;27.00;99.90;;;;;;5074912;28;20025;-57
2022/06/06 06:42:37;;;;;;;8.77;4.78;;;;;;;;;;5072809;28;20081;-54
2022/06/06 06:45:09;;;;;;;10.95;5.82;;;;;;;;;;5073954;28;20040;-56
2022/06/06 06:47:36;;;;;;;5.70;3.95;;;27.20;99.90;;;;;;5074041;28;20051;-55
2022/06/06 06:50:08;;;;;;;8.82;5.03;;;27.00;99.90;;;;;;5038526;28;20547;-55
2022/06/06 06:52:42;;;;;;;4.32;3.85;;;27.10;99.90;;;;;;5064898;28;20484;-57
2022/06/06 06:55:23;;;;;;;6.60;3.53;;;27.10;99.90;;;;;;5073340;28;20426;-56
2022/06/06 06:57:59;;;;;;;5.15;4.65;;;;;;;;;;5051487;28;20079;-53
2022/06/06 07:00:26;;;;;;;6.80;4.53;;;27.40;99.90;;;;;;5074056;28;20055;-57
2022/06/06 07:09:04;;;;;;;9.65;5.35;;;27.60;99.90;;;;;;4992896;28;20033;-55
2022/06/06 07:11:44;;;;;;;5.45;3.95;;;27.40;99.90;;;;;;4992188;28;20031;-53
2022/06/06 07:14:17;;;;;;;6.35;3.60;;;27.60;99.90;;;;;;4991555;28;20034;-54
2022/06/06 07:16:45;;;;;;;5.05;3.38;;;;;;;;;;4991947;28;20046;-56
2022/06/06 07:19:19;;;;;;;7.85;3.75;;;;;;;;;;4975691;28;20074;-56
2022/06/06 07:21:46;;;;;;;18.40;4.47;;;;;;;;;;4991693;28;20070;-53
2022/06/06 07:24:15;;;;;;;7.60;3.95;;;;;;;;;;4987963;28;20039;-55
2022/06/06 07:26:43;;;;;;;5.22;3.55;;;;;;;;;;4983974;28;20050;-56
2022/06/06 07:29:10;;;;;;;6.80;3.67;;;;;;;;;;4989878;28;20093;-54
2022/06/06 07:31:42;;;;;;;4.28;3.22;;;28.00;99.90;;;;;;4980964;28;20058;-56
2022/06/06 07:34:16;;;;;;;5.93;3.17;;;27.90;99.90;;;;;;4987093;28;20118;-55
2022/06/06 07:36:58;;;;;;;3.75;3.10;;;;;;;;;;4982529;28;20060;-54
2022/06/06 07:39:24;;;;;;;4.57;3.03;;;27.90;99.90;;;;;;4988937;28;20397;-57
2022/06/06 07:42:08;;;;;;;4.22;2.88;;;28.00;99.90;;;;;;5038853;28;20038;-55
2022/06/06 07:44:40;;;;;;;5.95;2.92;;;;;;;;;;5063302;28;20356;-52
2022/06/06 07:47:51;;;;;;;4.40;2.90;;;28.20;99.90;;;;;;5062562;28;20044;-54
2022/06/06 07:50:21;;;;;;;4.43;3.30;;;;;;;;;;4949801;28;20042;-55
2022/06/06 07:53:09;;;;;;;3.95;2.40;;;;;;;;;;4985490;28;20450;-55
2022/06/06 07:55:41;;;;;;;5.88;2.95;;;;;;;;;;4973363;28;20053;-52
2022/06/06 07:58:11;;;;;;;6.38;3.28;;;;;;;;;;4985116;28;20121;-57
2022/06/06 08:00:37;;;;;;;7.20;2.67;;;;;;;;;;4991038;28;20130;-55
2022/06/06 08:03:25;;;;;;;3.13;2.58;;;28.50;99.90;;;;;;4992221;28;20116;-54
2022/06/06 08:06:12;;;;;;;5.55;3.17;;;29.00;99.90;;;;;;4988587;28;20042;-55
2022/06/06 08:09:02;;;;;;;6.60;3.15;;;28.80;99.90;;;;;;4989447;28;20100;-56
2022/06/06 08:11:34;;;;;;;4.82;2.75;;;28.90;99.90;;;;;;4954841;28;20137;-53
2022/06/06 08:14:00;;;;;;;;;;;;;;;;;;4986453;28;20047;-54
2022/06/06 08:16:45;;;;;;;3.20;2.40;;;;;;;;;;4993657;28;20000;-52
2022/06/06 08:19:30;;;;;;;5.45;2.53;;;;;;;;;;4995304;28;20034;-58
2022/06/06 08:21:57;;;;;;;5.30;3.20;;;;;;;;;;4993072;28;20433;-54
2022/06/06 08:24:25;;;;;;;7.72;3.17;;;;;;;;;;4989495;28;20030;-56
2022/06/06 08:26:52;;;;;;;5.00;3.15;;;;;;;;;;4982035;28;20117;-57
2022/06/06 08:29:18;;;;;;;4.32;3.10;;;;;;;;;;5046225;28;20048;-53
2022/06/06 08:31:45;;;;;;;9.25;3.58;;;;;;;;;;5068635;28;20154;-54
2022/06/06 08:34:12;;;;;;;5.57;3.08;;;;;;;;;;5061631;28;20071;-53
2022/06/06 08:36:44;;;;;;;7.80;3.95;;;;;;;;;;5064889;28;20414;-54
2022/06/06 08:39:10;;;;;;;8.32;4.93;;;;;;;;;;5061825;28;20036;-57
2022/06/06 08:41:55;;;;;;;9.25;5.85;;;;;;;;;;5069720;28;20036;-53
2022/06/06 08:44:21;;;;;;;7.35;2.92;;;;;;;;;;5070052;28;20031;-55
2022/06/06 08:47:11;;;;;;;9.00;3.47;;;29.60;99.90;;;;;;5062886;28;20549;-56
2022/06/06 08:52:39;;;;;;;5.93;3.38;;;29.90;99.90;;;;;;5070036;28;20043;-54
2022/06/06 08:55:08;;;;;;;9.13;3.50;;;29.80;99.90;;;;;;5061903;28;20040;-53
2022/06/06 08:57:56;;;;;;;6.95;3.30;;;;;;;;;;5068085;28;20277;-54
2022/06/06 09:00:25;;;;;;;7.55;3.25;;;;;;;;;;5066499;28;20384;-52
2022/06/06 09:03:04;;;;;;;4.70;3.47;;;;;;;;;;5055963;28;20036;-58
2022/06/06 09:05:59;;;;;;;7.90;2.85;;;;;;;;;;5062449;28;20051;-56
2022/06/06 09:08:46;;;;;;;6.15;3.15;;;30.60;99.90;;;;;;4950684;28;20400;-53
2022/06/06 09:11:24;;;;;;;5.47;3.17;;;30.70;99.90;;;;;;4953990;29;20042;-56
2022/06/06 09:14:05;;;;;;;4.03;3.13;;;31.00;99.90;;;;;;4951932;28;20091;-55
2022/06/06 09:16:40;;;;;;;;;;;30.60;99.90;;;;;;4953980;28;20024;-58
2022/06/06 09:19:27;;;;;;;5.95;3.40;;;30.60;99.90;;;;;;4953408;29;19953;-54
2022/06/06 09:22:17;;;;;;;5.65;2.67;;;30.10;99.90;;;;;;4951902;28;20598;-55
2022/06/06 09:25:19;;;;;;;4.82;3.20;;;30.60;99.90;;;;;;4952409;28;20105;-55
2022/06/06 09:28:11;;;;;;;;;;;30.30;99.90;;;;;;4952382;28;20083;-58
2022/06/06 09:30:59;;;;;;;4.35;3.00;;;30.60;99.90;;;;;;4954190;28;20001;-56
2022/06/06 09:33:54;;;;;;;3.63;3.10;;;30.80;99.90;;;;;;4892871;29;20047;-55
2022/06/06 09:36:42;;;;;;;5.90;3.75;;;30.40;99.90;;;;;;4893758;29;20131;-58
2022/06/06 09:39:13;;;;;;;5.53;3.22;;;30.40;99.90;;;;;;4897617;29;20075;-53
2022/06/06 09:41:52;;;;;;;4.82;3.72;;;30.30;99.90;;;;;;4896637;29;20036;-54
2022/06/06 09:44:56;;;;;;;4.57;3.30;;;30.60;99.90;;;;;;4926116;28;20073;-53
2022/06/06 09:47:30;;;;;;;5.63;3.42;;;30.20;99.90;;;;;;5002934;28;20216;-55
2022/06/06 09:50:33;;;;;;;7.78;3.33;;;30.10;99.90;;;;;;5005091;28;20141;-57
2022/06/06 09:53:41;;;;;;;4.07;3.40;;;30.60;99.90;;;;;;5004423;28;20049;-56
2022/06/06 09:59:29;;;;;;;4.97;3.33;;;29.90;99.90;;;;;;4934045;29;20079;-50
2022/06/06 10:02:15;;;;;;;4.43;3.63;;;30.40;99.90;;;;;;4932339;29;20976;-51
2022/06/06 10:05:08;;;;;;;4.10;3.40;;;30.40;99.90;;;;;;4953589;28;20038;-54
2022/06/06 10:07:40;;;;;;;6.70;3.28;;;30.50;99.90;;;;;;4972611;28;20043;-51
2022/06/06 10:10:24;;;;;;;4.50;3.35;;;;;;;;;;4969878;28;20029;-52
2022/06/06 10:12:56;;;;;;;5.28;3.10;;;;;;;;;;4973247;28;20035;-56
2022/06/06 10:15:28;;;;;;;6.82;3.28;;;;;;;;;;4970660;28;20143;-51
2022/06/06 10:18:03;;;;;;;4.85;2.90;;;;;;;;;;4964839;28;20054;-52
2022/06/06 10:20:48;;;;;;;3.85;3.25;;;;;;;;;;4969438;28;20041;-56
2022/06/06 10:23:32;;;;;;;3.22;2.92;;;30.30;99.90;;;;;;4971011;28;20520;-58
2022/06/06 10:26:03;;;;;;;3.47;3.00;;;30.70;99.90;;;;;;4970289;28;20043;-52
2022/06/06 10:28:38;;;;;;;4.43;2.95;;;30.80;99.90;;;;;;4971840;28;20035;-55
2022/06/06 10:31:41;;;;;;;4.07;3.17;;;30.20;99.90;;;;;;4970000;28;20497;-51
2022/06/06 10:34:16;;;;;;;4.75;2.53;;;;;;;;;;4988675;28;20056;-52
2022/06/06 10:36:59;;;;;;;7.30;3.20;;;29.50;99.90;;;;;;5062542;28;20049;-50
2022/06/06 10:39:49;;;;;;;4.70;2.65;;;;;;;;;;5050823;28;20033;-51
2022/06/06 10:42:42;;;;;;;4.63;2.88;;;28.60;99.90;;;;;;5063334;28;20036;-52
2022/06/06 10:45:14;;;;;;;2.78;2.47;;;;;;;;;;5066906;28;20086;-55
2022/06/06 10:47:58;;;;;;;3.58;2.38;;;27.80;99.40;;;;;;5035243;28;20044;-58
2022/06/06 10:50:29;;;;;;;3.65;2.60;;;27.70;99.80;;;;;;5068305;28;20107;-57
2022/06/06 10:53:35;;;;;;;3.28;1.98;;;27.60;99.90;;;;;;5064611;28;20043;-55
2022/06/06 10:56:55;;;;;;;4.65;3.00;;;27.50;99.90;;;;;;5068425;28;20037;-56
2022/06/06 10:59:22;;;;;;;3.50;2.40;;;27.60;99.90;;;;;;4958215;28;20537;-60
2022/06/06 11:01:54;;;;;;;3.92;2.65;;;27.70;99.90;;;;;;4970214;28;20035;-59
2022/06/06 11:04:44;;;;;;;3.95;3.00;;;31.00;99.90;;;;;;4957948;28;20143;-58
2022/06/06 11:07:21;;;;;;;8.10;3.67;;;27.90;99.90;;;;;;4955689;28;20067;-58
2022/06/06 11:10:16;;;;;;;4.40;2.28;;;28.40;99.90;;;;;;4954333;28;20171;-58
2022/06/06 11:13:11;;;;;;;5.90;2.45;;;27.80;99.90;;;;;;4960184;28;20621;-57
2022/06/06 11:15:52;;;;;;;6.82;2.70;;;27.80;99.90;;;;;;4963589;28;20050;-58
2022/06/06 11:18:49;;;;;;;4.93;2.28;;;27.90;99.90;;;;;;4951513;28;20035;-58
2022/06/06 11:21:15;;;;;;;4.35;2.67;;;;;;;;;;4957023;28;20039;-59
2022/06/06 11:23:48;;;;;;;5.95;2.50;;;;;;;;;;4948416;28;20040;-59
2022/06/06 11:26:33;;;;;;;5.47;2.92;;;27.40;99.90;;;;;;4955802;28;20047;-56
2022/06/06 11:29:27;;;;;;;15.40;3.63;;;27.30;99.90;;;;;;4954205;28;20034;-59
2022/06/06 11:31:56;;;;;;;9.55;2.55;;;;;;;;;;4955868;28;20557;-58
2022/06/06 11:34:32;;;;;;;3.85;2.22;;;26.80;99.90;;;;;;4958752;28;20046;-59
2022/06/06 11:37:34;;;;;;;3.20;1.80;;;26.70;99.90;;;;;;5065261;28;20109;-59
2022/06/06 11:40:11;;;;;;;;;;;26.20;99.90;;;;;;4969448;28;20054;-60
2022/06/06 11:42:52;;;;;;;4.50;3.00;;;;;;;;;;4971859;28;19960;-58
2022/06/06 11:45:44;;;;;;;4.85;3.60;;;26.50;99.90;;;;;;4969951;28;20226;-59
2022/06/06 11:48:09;;;;;;;;;;;26.00;99.90;;;;;;4937883;28;20130;-58
2022/06/06 11:50:46;;;;;;;7.30;3.10;;;26.10;99.90;;;;;;4968646;28;20010;-58
2022/06/06 11:54:06;;;;;;;3.50;1.70;;;25.70;99.90;;;;;;4974764;28;20027;-57
2022/06/06 11:56:32;;;;;;;10.02;2.88;;;;;;;;;;4966100;28;20418;-58
2022/06/06 11:59:17;;;;;;;3.45;2.90;;;;;;;;;;4954316;28;20027;-56
2022/06/06 12:01:52;;;;;;;5.68;2.28;;;;;;;;;;4967260;28;20418;-55
2022/06/06 12:04:21;;;;;;;2.60;2.00;;;;;;;;;;4969473;28;20042;-53
2022/06/06 12:06:57;;;;;;;4.85;2.90;;;;;;;;;;4967715;28;20065;-53
2022/06/06 12:09:23;;;;;;;6.03;3.60;;;;;;;;;;4967224;28;20073;-52
2022/06/06 12:12:08;;;;;;;7.20;3.70;;;;;;;;;;4967732;28;20085;-54
2022/06/06 12:14:51;;;;;;;7.88;4.85;;;;;;;;;;4971360;28;20427;-54
2022/06/06 12:17:33;;;;;;;13.35;7.20;;;;;;;;;;5027676;28;20045;-50
2022/06/06 12:20:09;;;;;;;10.35;5.95;;;22.40;99.90;;;;;;5069229;28;20064;-52
2022/06/06 12:22:51;;;;;;;10.20;5.38;;;22.40;99.90;;;;;;5066496;28;20663;-54
2022/06/06 12:25:51;;;;;;;9.23;5.65;;;22.40;99.90;;;;;;5060754;28;20029;-51
2022/06/06 12:28:36;;;;;;;8.75;5.90;;;22.20;99.90;;;;;;4964525;28;20497;-48
2022/06/06 12:31:22;;;;;;;9.65;5.60;;;;;;;;;;5001052;28;20026;-57
2022/06/06 12:33:57;;;;;;;7.40;4.65;;;;;;;;;;5006217;28;20030;-56
2022/06/06 12:36:28;;;;;;;6.82;5.22;;;;;;;;;;5000241;28;20133;-56
2022/06/06 12:39:12;;;;;;;10.63;5.97;;;;;;;;;;5003717;28;20046;-56
2022/06/06 12:41:41;;;;;;;10.02;6.55;;;;;;;;;;5002848;28;20041;-57
2022/06/06 12:44:26;;;;;;;10.57;7.10;;;;;;;;;;5008597;28;20037;-55
2022/06/06 12:47:04;;;;;;;8.82;6.13;;;;;;;;;;5008793;28;20053;-56
2022/06/06 12:49:33;;;;;;;8.25;6.50;;;;;;;;;;5005599;28;20403;-56
2022/06/06 12:52:01;;;;;;;7.10;5.90;;;;;;;;;;5010722;28;20090;-56
2022/06/06 12:57:52;;;;;;;10.70;6.85;;;;;;;;;;5008816;28;20078;-56
2022/06/06 13:03:28;;;;;;;10.20;7.80;;;;;;;;;;4998687;28;20565;-56
2022/06/06 13:05:59;;;;;;;7.88;6.72;;;;;;;;;;4994774;28;20133;-56
2022/06/06 13:08:25;;;;;;;;;;;;;;;;;;4997477;28;20502;-56
2022/06/06 13:11:00;;;;;;;8.55;6.32;;;;;;;;;;4995341;28;19952;-57
2022/06/06 13:13:27;;;;;;;7.90;7.10;;;;;;;;;;4992284;28;20037;-56
2022/06/06 13:16:11;;;;;;;8.60;6.88;;;;;;;;;;4960569;28;20030;-55
2022/06/06 13:18:54;;;;;;;9.70;7.00;;;;;;;;;;4993164;28;20109;-56
2022/06/06 13:21:29;;;;;;;7.07;6.22;;;;;;;;;;4994449;28;20366;-56
2022/06/06 13:24:14;;;;;;;10.50;6.75;;;;;;;;;;4995148;28;20042;-56
2022/06/06 13:26:40;;;;;;;10.45;6.68;;;;;;;;;;4993597;28;20034;-56
2022/06/06 13:29:06;;;;;;;10.75;7.13;;;;;;;;;;4990701;28;20073;-55
2022/06/06 13:31:43;;;;;;;6.70;5.70;;;;;;;;;;4999223;28;20042;-56
2022/06/06 13:34:41;;;;;;;6.85;5.70;;;24.90;99.90;;;;;;4998665;28;20485;-56
2022/06/06 13:37:26;;;;;;;6.38;5.50;;;24.20;99.90;;;;;;4934056;28;20047;-56
2022/06/06 13:40:09;;;;;;;7.85;5.75;;;24.40;99.90;;;;;;4972723;28;20030;-55
2022/06/06 13:43:01;;;;;;;6.28;5.68;;;24.40;99.90;;;;;;4973476;28;20581;-56
2022/06/06 13:45:27;;;;;;;;;;;;;;;;;;4973866;28;20034;-56
2022/06/06 13:48:14;;;;;;;5.00;4.40;;;;;;;;;;4939635;28;19918;-56
2022/06/06 13:50:55;;;;;;;8.82;5.40;;;;;;;;;;4957230;28;20524;-56
2022/06/06 13:53:33;;;;;;;6.43;3.80;;;;;;;;;;4971601;28;20023;-56
2022/06/06 13:56:08;;;;;;;4.80;3.97;;;;;;;;;;4972210;28;20034;-55
2022/06/06 13:58:37;;;;;;;5.07;3.90;;;;;;;;;;4972199;28;20035;-56
2022/06/06 14:01:23;;;;;;;7.15;4.32;;;;;;;;;;4956184;28;20397;-56
2022/06/06 14:03:52;;;;;;;5.63;4.60;;;;;;;;;;4956977;28;20169;-56
2022/06/06 14:06:27;;;;;;;6.32;4.25;;;;;;;;;;4967737;28;20046;-56
2022/06/06 14:08:54;;;;;;;6.40;4.25;;;;;;;;;;4972913;28;20045;-55
2022/06/06 14:11:39;;;;;;;7.60;4.30;;;;;;;;;;4972985;28;20073;-56
2022/06/06 14:14:05;;;;;;;5.07;3.88;;;25.90;99.90;;;;;;5019846;28;20144;-57
2022/06/06 14:16:41;;;;;;;6.18;3.78;;;26.00;99.90;;;;;;5033842;28;20393;-56
2022/06/06 14:19:27;;;;;;;5.25;4.18;;;26.10;99.90;;;;;;5029724;28;20041;-56
2022/06/06 14:22:01;;;;;;;6.50;4.13;;;26.20;99.90;;;;;;5068514;28;20037;-56
2022/06/06 14:24:32;;;;;;;6.97;4.10;;;26.40;99.90;;;;;;5065917;28;20036;-56
2022/06/06 14:27:04;;;;;;;6.90;3.67;;;26.50;99.90;;;;;;5071015;28;20085;-56
2022/06/06 14:29:31;;;;;;;4.18;3.38;;;26.60;99.90;;;;;;5068238;28;20031;-56
2022/06/06 14:32:07;;;;;;;9.30;3.38;;;26.60;99.90;;;;;;5070195;28;20472;-55
2022/06/06 14:34:35;;;;;;;6.40;3.45;;;26.60;99.90;;;;;;5066909;28;20464;-56
2022/06/06 14:37:05;;;;;;;4.03;3.05;;;;;;;;;;5064130;28;20048;-56
2022/06/06 14:39:32;;;;;;;3.90;3.50;;;;;;;;;;5069968;28;20024;-57
2022/06/06 14:42:02;;;;;;;9.07;3.15;;;27.60;99.90;;;;;;5067113;28;20360;-51